createdAt,value
2023-08-26T00:05:08.039Z,99.90
2023-08-26T00:10:21.278Z,99.90
2023-08-26T00:15:31.811Z,99.90
2023-08-26T00:20:46.709Z,99.90
2023-08-26T00:25:54.427Z,99.90
2023-08-26T00:31:03.702Z,99.90
2023-08-26T00:36:09.473Z,99.90
2023-08-26T00:41:16.425Z,99.90
2023-08-26T00:46:23.303Z,99.90
2023-08-26T00:51:29.530Z,99.90
2023-08-26T00:56:35.273Z,99.90
2023-08-26T01:01:42.731Z,99.90
2023-08-26T01:06:49.051Z,99.90
2023-08-26T01:11:57.715Z,99.90
2023-08-26T01:17:06.838Z,99.90
2023-08-26T01:22:15.023Z,99.90
2023-08-26T01:27:20.637Z,99.90
2023-08-26T01:32:32.137Z,99.90
2023-08-26T01:37:41.351Z,99.90
2023-08-26T01:42:49.058Z,99.90
2023-08-26T01:47:55.472Z,99.90
2023-08-26T01:53:01.539Z,99.90
2023-08-26T01:58:07.173Z,99.90
2023-08-26T02:03:12.855Z,99.90
2023-08-26T02:08:18.600Z,99.90
2023-08-26T02:13:25.169Z,99.90
2023-08-26T02:18:31.781Z,99.90
2023-08-26T02:23:38.003Z,99.90
2023-08-26T02:28:43.686Z,99.90
2023-08-26T02:33:49.342Z,99.90
2023-08-26T02:38:55.704Z,99.90
2023-08-26T02:44:02.425Z,99.90
2023-08-26T02:49:08.130Z,99.90
2023-08-26T02:54:14.169Z,99.90
2023-08-26T02:59:19.738Z,99.90
2023-08-26T03:04:25.297Z,99.90
2023-08-26T03:09:31.465Z,99.90
2023-08-26T03:14:37.126Z,99.90
2023-08-26T03:19:42.814Z,99.90
2023-08-26T03:24:48.867Z,99.90
2023-08-26T03:29:54.758Z,99.90
2023-08-26T03:35:00.352Z,99.90
2023-08-26T03:40:08.473Z,99.90
2023-08-26T03:45:14.175Z,99.90
2023-08-26T03:50:21.998Z,99.90
2023-08-26T03:55:28.300Z,99.90
2023-08-26T04:00:33.932Z,99.90
2023-08-26T04:05:39.695Z,99.90
2023-08-26T04:10:47.714Z,99.90
2023-08-26T04:16:01.946Z,99.90
2023-08-26T04:21:07.557Z,99.90
2023-08-26T04:26:13.227Z,99.90
2023-08-26T04:31:19.056Z,99.90
2023-08-26T04:36:26.454Z,99.90
2023-08-26T04:41:33.261Z,99.90
2023-08-26T04:46:42.682Z,99.90
2023-08-26T04:51:58.129Z,99.90
2023-08-26T04:57:05.673Z,99.90
2023-08-26T05:02:11.393Z,99.90
2023-08-26T05:07:17.033Z,99.90
2023-08-26T05:12:26.162Z,99.90
2023-08-26T05:17:32.639Z,99.90
2023-08-26T05:22:38.368Z,99.90
2023-08-26T05:27:44.613Z,99.90
2023-08-26T05:32:52.783Z,99.90
2023-08-26T05:38:00.095Z,99.90
2023-08-26T05:43:07.258Z,99.90
2023-08-26T05:48:12.914Z,99.90
2023-08-26T05:53:21.776Z,99.90
2023-08-26T05:58:27.315Z,99.90
2023-08-26T06:03:33.198Z,99.90
2023-08-26T06:08:38.947Z,99.90
2023-08-26T06:13:45.126Z,99.90
2023-08-26T06:18:53.988Z,99.90
2023-08-26T06:23:59.244Z,99.90
2023-08-26T06:29:06.261Z,99.90
2023-08-26T06:34:15.096Z,99.90
2023-08-26T06:39:26.030Z,99.90
2023-08-26T06:44:37.956Z,99.90
2023-08-26T06:49:49.578Z,99.90
2023-08-26T06:54:58.793Z,99.90
2023-08-26T07:00:10.067Z,99.90
2023-08-26T07:05:19.791Z,99.90
2023-08-26T07:10:31.758Z,99.60
2023-08-26T07:15:44.214Z,98.80
2023-08-26T07:20:51.732Z,97.90
2023-08-26T07:25:59.529Z,97.20
2023-08-26T07:31:12.123Z,96.90
2023-08-26T07:36:17.516Z,97.20
2023-08-26T07:41:29.135Z,94.90
2023-08-26T07:51:43.965Z,93.00
2023-08-26T07:56:49.819Z,92.70
2023-08-26T08:02:18.854Z,91.80
2023-08-26T08:07:28.995Z,92.00
2023-08-26T08:12:37.137Z,91.00
2023-08-26T08:17:44.326Z,91.20
2023-08-26T08:23:02.835Z,91.10
2023-08-26T08:28:10.620Z,91.70
2023-08-26T08:33:20.417Z,91.30
2023-08-26T08:38:30.496Z,90.30
2023-08-26T08:43:41.308Z,88.20
2023-08-26T08:48:50.367Z,86.90
2023-08-26T08:53:57.069Z,85.30
2023-08-26T08:59:03.668Z,86.00
2023-08-26T09:04:13.200Z,85.80
2023-08-26T09:09:32.240Z,86.50
2023-08-26T09:14:30.496Z,87.30
2023-08-26T09:19:40.709Z,86.60
2023-08-26T09:24:46.898Z,84.70
2023-08-26T09:29:54.625Z,83.40
2023-08-26T09:36:31.106Z,85.40
2023-08-26T09:40:29.812Z,84.40
2023-08-26T09:45:40.588Z,85.10
2023-08-26T09:50:47.235Z,84.70
2023-08-26T09:55:53.367Z,85.40
2023-08-26T10:01:04.500Z,83.00
2023-08-26T10:06:14.703Z,79.00
2023-08-26T10:11:23.759Z,78.60
2023-08-26T10:16:35.374Z,78.40
2023-08-26T10:21:41.116Z,77.10
2023-08-26T10:26:51.216Z,76.30
2023-08-26T10:31:56.772Z,77.40
2023-08-26T10:37:05.416Z,78.00
2023-08-26T10:42:23.057Z,77.60
2023-08-26T10:47:39.868Z,77.80
2023-08-26T10:52:50.159Z,78.70
2023-08-26T10:58:18.100Z,80.70
2023-08-26T11:03:29.883Z,82.60
2023-08-26T11:08:38.581Z,84.30
2023-08-26T11:13:46.543Z,86.90
2023-08-26T11:18:55.716Z,88.00
2023-08-26T11:24:23.192Z,90.00
2023-08-26T11:29:31.451Z,91.60
2023-08-26T11:34:37.101Z,92.20
2023-08-26T11:39:50.189Z,92.80
2023-08-26T11:45:01.870Z,93.60
2023-08-26T11:50:11.627Z,94.50
2023-08-26T11:55:28.072Z,95.00
2023-08-26T12:00:37.212Z,94.90
2023-08-26T12:05:51.115Z,94.80
2023-08-26T12:11:00.651Z,95.30
2023-08-26T12:16:11.707Z,94.90
2023-08-26T12:21:23.316Z,95.10
2023-08-26T12:26:32.150Z,94.40
2023-08-26T12:31:38.704Z,94.90
2023-08-26T12:36:52.764Z,93.10
2023-08-26T12:42:13.386Z,89.00
2023-08-26T12:47:27.297Z,89.50
2023-08-26T12:52:32.784Z,89.20
2023-08-26T12:57:38.544Z,86.70
2023-08-26T13:02:48.925Z,85.70
2023-08-26T13:07:55.477Z,84.80
2023-08-26T13:13:01.421Z,83.20
2023-08-26T13:18:08.598Z,81.00
2023-08-26T13:23:37.094Z,78.90
2023-08-26T13:28:45.663Z,78.50
2023-08-26T13:33:53.136Z,78.00
2023-08-26T13:39:02.173Z,77.30
2023-08-26T13:44:10.455Z,78.50
2023-08-26T13:49:20.652Z,79.40
2023-08-26T13:54:27.902Z,77.50
2023-08-26T13:59:35.246Z,77.70
2023-08-26T14:04:41.332Z,75.60
2023-08-26T14:09:49.271Z,75.20
2023-08-26T14:15:01.787Z,75.80
2023-08-26T14:20:06.004Z,75.20
2023-08-26T14:25:14.572Z,75.70
2023-08-26T14:30:22.403Z,75.70
2023-08-26T14:35:29.932Z,75.20
2023-08-26T14:40:39.134Z,75.30
2023-08-26T14:45:49.231Z,74.10
2023-08-26T14:50:58.131Z,75.40
2023-08-26T14:56:07.913Z,74.70
2023-08-26T15:01:15.050Z,72.70
2023-08-26T15:06:22.553Z,71.50
2023-08-26T15:11:28.117Z,70.80
2023-08-26T15:16:34.733Z,72.00
2023-08-26T15:21:41.851Z,73.70
2023-08-26T15:26:48.686Z,72.70
2023-08-26T15:31:55.291Z,72.50
2023-08-26T15:37:01.377Z,71.60
2023-08-26T15:42:21.433Z,72.50
2023-08-26T15:47:48.614Z,73.00
2023-08-26T15:52:54.191Z,73.20
2023-08-26T15:58:20.919Z,72.80
2023-08-26T16:03:31.737Z,73.50
2023-08-26T16:08:39.573Z,74.10
2023-08-26T16:14:20.025Z,72.40
2023-08-26T16:19:34.229Z,72.90
2023-08-26T16:24:42.761Z,73.80
2023-08-26T16:29:59.696Z,74.50
2023-08-26T16:35:11.871Z,75.20
2023-08-26T16:40:41.300Z,76.00
2023-08-26T16:45:58.518Z,76.70
2023-08-26T16:51:09.712Z,76.00
2023-08-26T16:56:17.947Z,78.00
2023-08-26T17:01:25.820Z,78.70
2023-08-26T17:06:37.844Z,79.90
2023-08-26T17:11:44.691Z,81.30
2023-08-26T17:17:10.333Z,82.40
2023-08-26T17:22:20.737Z,83.70
2023-08-26T17:27:29.241Z,84.90
2023-08-26T17:32:36.697Z,85.90
2023-08-26T17:37:46.369Z,86.90
2023-08-26T17:42:57.524Z,88.00
2023-08-26T17:48:08.452Z,88.80
2023-08-26T17:53:17.954Z,90.10
2023-08-26T17:58:26.061Z,90.80
2023-08-26T18:09:30.738Z,91.80
2023-08-26T18:14:45.619Z,92.40
2023-08-26T18:19:59.725Z,93.10
2023-08-26T18:25:12.474Z,93.70
2023-08-26T18:30:29.890Z,94.60
2023-08-26T18:35:45.975Z,95.50
2023-08-26T18:41:02.030Z,96.50
2023-08-26T18:46:09.880Z,97.30
2023-08-26T18:51:26.718Z,98.80
2023-08-26T18:56:38.772Z,99.90
2023-08-26T19:01:47.776Z,99.90
2023-08-26T19:06:55.936Z,99.90
2023-08-26T19:12:05.055Z,99.90
2023-08-26T19:17:11.924Z,99.90
2023-08-26T19:22:19.380Z,99.90
2023-08-26T19:27:29.439Z,99.90
2023-08-26T19:32:38.765Z,99.90
2023-08-26T19:37:48.422Z,99.90
2023-08-26T19:43:11.962Z,99.90
2023-08-26T19:48:27.092Z,99.90
2023-08-26T19:53:34.229Z,99.90
2023-08-26T19:58:42.468Z,99.90
2023-08-26T20:03:50.357Z,99.90
2023-08-26T20:08:58.161Z,99.90
2023-08-26T20:14:07.001Z,99.90
2023-08-26T20:19:15.943Z,99.90
2023-08-26T20:24:24.494Z,99.90
2023-08-26T20:29:29.908Z,99.90
2023-08-26T20:34:36.054Z,99.90
2023-08-26T20:39:41.524Z,99.90
2023-08-26T20:44:47.998Z,99.90
2023-08-26T20:49:57.371Z,99.90
2023-08-26T20:55:03.678Z,99.90
2023-08-26T21:00:12.875Z,99.90
2023-08-26T21:05:19.558Z,99.90
2023-08-26T21:10:35.048Z,99.90
2023-08-26T21:15:42.036Z,99.90
2023-08-26T21:20:49.323Z,99.90
2023-08-26T21:25:59.540Z,99.90
2023-08-26T21:31:12.083Z,99.90
2023-08-26T21:36:24.688Z,99.90
2023-08-26T21:41:32.183Z,99.90
2023-08-26T21:46:39.820Z,99.90
2023-08-26T21:51:45.231Z,99.90
2023-08-26T21:56:50.584Z,99.90
2023-08-26T22:01:57.027Z,99.90
2023-08-26T22:07:02.521Z,99.90
2023-08-26T22:12:10.443Z,99.90
2023-08-26T22:17:23.857Z,99.90
2023-08-26T22:22:45.554Z,99.90
2023-08-26T22:27:50.597Z,99.90
2023-08-26T22:33:02.790Z,99.90
2023-08-26T22:38:11.604Z,99.90
2023-08-26T22:43:17.571Z,99.90
2023-08-26T22:48:24.496Z,99.90
2023-08-26T22:53:33.996Z,99.90
2023-08-26T22:58:41.782Z,99.90
2023-08-26T23:03:48.142Z,99.90
2023-08-26T23:08:56.424Z,99.90
2023-08-26T23:14:13.599Z,99.90
2023-08-26T23:19:11.927Z,99.90
2023-08-26T23:24:21.025Z,99.90
2023-08-26T23:29:26.432Z,99.90
2023-08-26T23:34:31.815Z,99.90
2023-08-26T23:39:41.801Z,99.90
2023-08-26T23:44:52.491Z,99.90
2023-08-26T23:50:01.294Z,99.90
2023-08-26T23:55:12.207Z,99.90
